Accueil
METAR-TAF:

METAR-TAF

Aéroports :

Frosinone, Italie

latitude: 41-38N, longitude: 013-18E, altitude: 180 m

Observation

Le bulletin a été fait il y a 47 minutes, à 04:55 UTC
Vent 3 kt de ouest/sud-ouest
Température 18°C
Humidité 88%
Pression 1013 hPa
Visibilité: 7000 m
Nuages épars à une hauteur de 3500 ft

METAR: LIRH 200455Z 25003KT 7000 SCT035 18/16 Q1013 RMK BKN SCT060 MON LIB VAR RAPID VIS MIN 7000 WIND THR16 32002KT WHT

Heure: 07:42 (05:42 UTC)

Prévision

Le bulletin a été fait il y a 42 minutes, à 05:00 UTC
Prévision valable du 20 à 06 UTC au 20 à 15 UTC
Vent 5 kt de sud/sud-est
Visibilité 10 km ou plus
Nuages épars à une hauteur de 3000 ft

TAF: LIRH 200500Z 2006/2015 15005KT 9999 SCT030

Observations et prévisions météorologiques de plus de 4000 aéroports (messages METAR et TAF).

Les stations disponibles sont représentées par des disques jaunes et rouges sur la carte.

Passer la souris dessus pour voir le nom de la station.

Cliquer dessus pour voir les observations et prévisions météorologiques.

Pour changer de carte: cliquez sur les boutons verts avec une croix noire pour zoomer, sur le bouton vert avec un tiret pour effectuer un zoom arrière, ou sur les flèches vertes pour les cartes adjacentes.


METAR-TAF: